地図

経路データ

SID SEASON NUMBER BASIN SUBBASIN NAME ISO_TIME NATURE LAT LON WMO_WIND WMO_PRES WMO_AGENCY TRACK_TYPE DIST2LAND LANDFALL IFLAG USA_AGENCY USA_ATCF_ID USA_LAT USA_LON USA_RECORD USA_STATUS USA_WIND USA_PRES USA_SSHS USA_R34_NE USA_R34_SE USA_R34_SW USA_R34_NW USA_R50_NE USA_R50_SE USA_R50_SW USA_R50_NW USA_R64_NE USA_R64_SE USA_R64_SW USA_R64_NW USA_POCI USA_ROCI USA_RMW USA_EYE TOKYO_LAT TOKYO_LON TOKYO_GRADE TOKYO_WIND TOKYO_PRES TOKYO_R50_DIR TOKYO_R50_LONG TOKYO_R50_SHORT TOKYO_R30_DIR TOKYO_R30_LONG TOKYO_R30_SHORT TOKYO_LAND CMA_LAT CMA_LON CMA_CAT CMA_WIND CMA_PRES HKO_LAT HKO_LON HKO_CAT HKO_WIND HKO_PRES NEWDELHI_LAT NEWDELHI_LON NEWDELHI_GRADE NEWDELHI_WIND NEWDELHI_PRES NEWDELHI_CI NEWDELHI_DP NEWDELHI_POCI REUNION_LAT REUNION_LON REUNION_TYPE REUNION_WIND REUNION_PRES REUNION_TNUM REUNION_CI REUNION_RMW REUNION_R34_NE REUNION_R34_SE REUNION_R34_SW REUNION_R34_NW REUNION_R50_NE REUNION_R50_SE REUNION_R50_SW REUNION_R50_NW REUNION_R64_NE REUNION_R64_SE REUNION_R64_SW REUNION_R64_NW BOM_LAT BOM_LON BOM_TYPE BOM_WIND BOM_PRES BOM_TNUM BOM_CI BOM_RMW BOM_R34_NE BOM_R34_SE BOM_R34_SW BOM_R34_NW BOM_R50_NE BOM_R50_SE BOM_R50_SW BOM_R50_NW BOM_R64_NE BOM_R64_SE BOM_R64_SW BOM_R64_NW BOM_ROCI BOM_POCI BOM_EYE BOM_POS_METHOD BOM_PRES_METHOD NADI_LAT NADI_LON NADI_CAT NADI_WIND NADI_PRES WELLINGTON_LAT WELLINGTON_LON WELLINGTON_WIND WELLINGTON_PRES DS824_LAT DS824_LON DS824_STAGE DS824_WIND DS824_PRES TD9636_LAT TD9636_LON TD9636_STAGE TD9636_WIND TD9636_PRES TD9635_LAT TD9635_LON TD9635_WIND TD9635_PRES TD9635_ROCI NEUMANN_LAT NEUMANN_LON NEUMANN_CLASS NEUMANN_WIND NEUMANN_PRES MLC_LAT MLC_LON MLC_CLASS MLC_WIND MLC_PRES USA_GUST BOM_GUST BOM_GUST_PER REUNION_GUST REUNION_GUST_PER USA_SEAHGT USA_SEARAD_NE USA_SEARAD_SE USA_SEARAD_SW USA_SEARAD_NW STORM_SPEED STORM_DIR
1994047S17041 1994 14 SI MM JULITA 1994-02-15 18:00:00 TS -17.2000 40.8000 25 998 reunion main 132 132 _____O______O_ -1 -17.2000 40.8000 2 25 998 2.00000 2.00000 -17.2000 40.8000 TC 35 998 5 87
1994047S17041 1994 14 SI MM JULITA 1994-02-15 21:00:00 TS -17.1876 41.0600 main 159 159 _____P______P_ -1 -17.1876 41.0600 2 25 998 -17.1876 41.0600 TC 35 998 5 90
1994047S17041 1994 14 SI MM JULITA 1994-02-16 00:00:00 TS -17.2000 41.3000 25 998 reunion main 177 177 _____O______O_ -1 -17.2000 41.3000 2 25 998 2.00000 2.00000 -17.2000 41.3000 TC 35 998 4 98
1994047S17041 1994 14 SI MM JULITA 1994-02-16 03:00:00 TS -17.2500 41.5075 main 195 195 _____P______P_ -1 -17.2500 41.5075 2 25 998 -17.2500 41.5075 TC 35 998 4 105
1994047S17041 1994 14 SI MM JULITA 1994-02-16 06:00:00 TS -17.3000 41.7000 25 998 reunion main 218 213 _____O______O_ -1 -17.3000 41.7000 2 25 998 2.00000 2.00000 -17.3000 41.7000 TC 35 998 4 98
1994047S17041 1994 14 SI MM JULITA 1994-02-16 09:00:00 TS -17.3000 41.9000 main 213 192 _____P______P_ -1 -17.3000 41.9000 2 26 996 -17.3000 41.9000 TC 37 996 4 90
1994047S17041 1994 14 SI MM JULITA 1994-02-16 12:00:00 TS -17.3000 42.1000 28 995 reunion main 192 171 _____O______O_ -1 -17.3000 42.1000 2 28 995 2.50000 2.50000 -17.3000 42.1000 TC 40 995 4 96
1994047S17041 1994 14 SI MM JULITA 1994-02-16 15:00:00 TS -17.3425 42.3075 main 171 148 _____P______P_ -1 -17.3425 42.3075 2 28 995 -17.3425 42.3075 TC 40 995 4 105
1994047S17041 1994 14 SI MM JULITA 1994-02-16 18:00:00 TS -17.4000 42.5000 28 995 reunion main 148 138 _____O______O_ -1 -17.4000 42.5000 2 28 995 2.50000 2.50000 -17.4000 42.5000 TC 40 995 3 105
1994047S17041 1994 14 SI MM JULITA 1994-02-16 21:00:00 TS -17.4275 42.6501 main 127 116 _____P______P_ -1 -17.4275 42.6501 2 29 995 -17.4275 42.6501 TC 40 995 3 109
1994047S17041 1994 14 SI MM JULITA 1994-02-17 00:00:00 TS -17.5000 42.8000 30 995 reunion main 116 96 _____O______O_ -1 -17.5000 42.8000 2 30 995 2.50000 2.50000 -17.5000 42.8000 TC 40 995 4 123
1994047S17041 1994 14 SI MM JULITA 1994-02-17 03:00:00 TS -17.6475 43.0075 main 96 81 _____P______P_ -1 -17.6475 43.0075 2 30 995 -17.6475 43.0075 TC 40 995 6 136
1994047S17041 1994 14 SI MM JULITA 1994-02-17 06:00:00 TS -17.9000 43.2000 30 995 reunion main 84 73 _____O______O_ -1 -17.9000 43.2000 2 30 995 2.50000 2.50000 -17.9000 43.2000 TC 40 995 7 156
1994047S17041 1994 14 SI MM JULITA 1994-02-17 09:00:00 TS -18.2925 43.3076 main 73 64 _____P______P_ -1 -18.2925 43.3076 2 29 996 -18.2925 43.3076 TC 37 996 8 167
1994047S17041 1994 14 SI MM JULITA 1994-02-17 12:00:00 TS -18.7000 43.4000 28 998 reunion main 71 69 _____O______O_ -1 -18.7000 43.4000 2 28 998 2.50000 2.50000 -18.7000 43.4000 TC 35 998 7 162
1994047S17041 1994 14 SI MM JULITA 1994-02-17 15:00:00 TS -18.9950 43.5425 main 73 53 _____P______P_ -1 -18.9950 43.5425 2 28 998 -18.9950 43.5425 TC 35 998 6 150
1994047S17041 1994 14 SI MM JULITA 1994-02-17 18:00:00 TS -19.2000 43.7000 28 998 reunion main 53 47 _____O______O_ -1 -19.2000 43.7000 2 28 998 2.00000 2.50000 -19.2000 43.7000 TC 35 998 4 139
1994047S17041 1994 14 SI MM JULITA 1994-02-17 21:00:00 TS -19.3074 43.8352 main 47 38 _____P______P_ -1 -19.3074 43.8352 2 28 998 -19.3074 43.8352 TC 35 998 3 125
1994047S17041 1994 14 SI MM JULITA 1994-02-18 00:00:00 TS -19.4000 44.0000 28 998 reunion main 38 30 _____O______O_ -1 -19.4000 44.0000 2 28 998 2.00000 2.50000 -19.4000 44.0000 TC 35 998 5 124
1994047S17041 1994 14 SI MM JULITA 1994-02-18 03:00:00 TS -19.5625 44.2276 main 30 0 _____P______P_ -1 -19.5625 44.2276 2 26 999 -19.5625 44.2276 TC 32 999 6 130
1994047S17041 1994 14 SI MM JULITA 1994-02-18 06:00:00 TS -19.8000 44.5000 25 1000 reunion main 0 0 _____O______O_ -1 -19.8000 44.5000 2 25 1000 2.00000 2.00000 -19.8000 44.5000 TC 30 1000 8 137
1994047S17041 1994 14 SI MM JULITA 1994-02-18 09:00:00 TS -20.1251 44.7946 main 0 0 _____P______P_ -1 -20.1251 44.7946 2 -20.1251 44.7946 TC 30 9 141
1994047S17041 1994 14 SI MM JULITA 1994-02-18 12:00:00 TS -20.5000 45.1000 reunion main 0 _____O______O_ -1 -20.5000 45.1000 8 9.90000 -20.5000 45.1000 TC 30 9 143

IBTrACS Databaseについて

本データベースは、米国NOAAが公開する1842年以降の世界の熱帯低気圧のベストトラックデータアーカイブInternational Best Track Archive for Climate Stewardship (IBTrACS)を、ウェブで閲覧しやすい形式に変換したものです。

最終更新日:2021-12-08